createdAt,value
2022-11-14T00:01:08.816Z,27.80
2022-11-14T00:03:37.767Z,27.43
2022-11-14T00:06:07.215Z,23.43
2022-11-14T00:08:35.297Z,24.13
2022-11-14T00:11:03.197Z,28.10
2022-11-14T00:13:30.812Z,25.40
2022-11-14T00:15:58.428Z,30.73
2022-11-14T00:18:26.022Z,29.43
2022-11-14T00:20:55.067Z,27.30
2022-11-14T00:23:23.070Z,28.00
2022-11-14T00:25:50.908Z,32.97
2022-11-14T00:28:18.517Z,27.13
2022-11-14T00:30:48.023Z,27.57
2022-11-14T00:33:20.135Z,28.60
2022-11-14T00:35:52.860Z,29.93
2022-11-14T00:38:22.248Z,28.23
2022-11-14T00:40:49.867Z,26.73
2022-11-14T00:43:17.500Z,29.93
2022-11-14T00:45:45.201Z,34.47
2022-11-14T00:48:12.771Z,29.10
2022-11-14T00:50:40.580Z,29.53
2022-11-14T00:53:08.304Z,30.03
2022-11-14T00:55:37.278Z,29.43
2022-11-14T00:58:05.021Z,31.97
2022-11-14T01:00:32.794Z,28.20
2022-11-14T01:03:00.418Z,33.37
2022-11-14T01:05:28.869Z,30.20
2022-11-14T01:07:56.520Z,27.50
2022-11-14T01:10:24.096Z,29.67
2022-11-14T01:12:53.116Z,30.77
2022-11-14T01:15:20.751Z,30.43
2022-11-14T01:17:48.318Z,33.60
2022-11-14T01:20:16.682Z,31.07
2022-11-14T01:22:44.339Z,34.60
2022-11-14T01:25:11.945Z,33.27
2022-11-14T01:27:39.548Z,33.07
2022-11-14T01:30:09.823Z,33.83
2022-11-14T01:32:37.406Z,31.77
2022-11-14T01:35:05.398Z,33.23
2022-11-14T01:37:33.049Z,32.87
2022-11-14T01:40:00.879Z,37.40
2022-11-14T01:42:28.470Z,32.93
2022-11-14T01:44:56.417Z,41.33
2022-11-14T01:47:30.001Z,34.83
2022-11-14T01:50:00.632Z,36.37
2022-11-14T01:52:32.751Z,42.70
2022-11-14T01:55:02.950Z,39.97
2022-11-14T01:57:34.704Z,39.43
2022-11-14T02:00:05.347Z,41.33
2022-11-14T02:02:34.387Z,40.40
2022-11-14T02:05:06.810Z,38.83
2022-11-14T02:07:38.117Z,41.20
2022-11-14T02:10:08.882Z,40.97
2022-11-14T02:12:37.815Z,39.13
2022-11-14T02:15:06.076Z,40.17
2022-11-14T02:17:35.229Z,35.97
2022-11-14T02:20:17.700Z,41.73
2022-11-14T02:22:45.310Z,36.97
2022-11-14T02:25:16.043Z,37.20
2022-11-14T02:27:44.604Z,35.93
2022-11-14T02:30:15.259Z,38.87
2022-11-14T02:33:10.407Z,39.13
2022-11-14T02:35:31.906Z,36.93
2022-11-14T02:37:59.458Z,32.80
2022-11-14T02:40:27.119Z,33.90
2022-11-14T02:42:54.809Z,30.27
2022-11-14T02:45:22.550Z,41.43
2022-11-14T02:47:50.155Z,41.00
2022-11-14T02:50:18.388Z,34.73
2022-11-14T02:52:47.314Z,38.50
2022-11-14T02:55:22.239Z,37.27
2022-11-14T02:57:49.800Z,34.60
2022-11-14T03:00:18.695Z,36.87
2022-11-14T03:02:47.659Z,33.50
2022-11-14T03:05:15.380Z,32.43
2022-11-14T03:07:42.975Z,38.70
2022-11-14T03:10:14.014Z,36.73
2022-11-14T03:12:41.678Z,35.57
2022-11-14T03:15:10.766Z,35.03
2022-11-14T03:17:38.370Z,37.10
2022-11-14T03:20:07.208Z,40.97
2022-11-14T03:22:34.772Z,42.50
2022-11-14T03:25:02.828Z,38.40
2022-11-14T03:27:31.777Z,37.40
2022-11-14T03:29:59.512Z,39.40
2022-11-14T03:32:27.251Z,39.10
2022-11-14T03:34:55.072Z,33.63
2022-11-14T03:37:22.861Z,35.77
2022-11-14T03:39:50.478Z,40.03
2022-11-14T03:42:18.056Z,41.67
2022-11-14T03:44:47.104Z,36.30
2022-11-14T03:47:14.744Z,36.40
2022-11-14T03:49:44.938Z,36.63
2022-11-14T03:52:12.555Z,33.20
2022-11-14T03:54:40.349Z,42.20
2022-11-14T03:57:08.100Z,36.53
2022-11-14T03:59:35.699Z,33.50
2022-11-14T04:02:04.769Z,38.23
2022-11-14T04:04:32.362Z,32.20
2022-11-14T04:07:00.009Z,33.63
2022-11-14T04:09:27.723Z,35.33
2022-11-14T04:11:55.281Z,31.73
2022-11-14T04:14:22.887Z,36.50
2022-11-14T04:16:50.523Z,35.30
2022-11-14T04:19:19.468Z,33.50
2022-11-14T04:21:47.086Z,28.10
2022-11-14T04:24:14.715Z,31.00
2022-11-14T04:26:42.297Z,31.77
2022-11-14T04:29:09.900Z,31.70
2022-11-14T04:31:37.617Z,30.43
2022-11-14T04:34:05.233Z,25.83
2022-11-14T04:36:34.193Z,31.30
2022-11-14T04:39:01.876Z,29.20
2022-11-14T04:41:29.438Z,26.40
2022-11-14T04:43:57.028Z,25.70
2022-11-14T04:46:24.636Z,28.10
2022-11-14T04:48:52.234Z,26.80
2022-11-14T04:51:19.839Z,29.80
2022-11-14T04:53:48.808Z,30.40
2022-11-14T04:56:16.412Z,31.63
2022-11-14T04:58:44.153Z,28.47
2022-11-14T05:01:13.031Z,30.40
2022-11-14T05:03:40.755Z,28.27
2022-11-14T05:06:08.805Z,31.43
2022-11-14T05:08:36.536Z,30.07
2022-11-14T05:11:05.692Z,30.17
2022-11-14T05:13:33.300Z,26.83
2022-11-14T05:16:01.697Z,25.70
2022-11-14T05:18:29.559Z,23.40
2022-11-14T05:21:00.020Z,27.23
2022-11-14T05:23:28.187Z,25.13
2022-11-14T05:26:03.580Z,32.20
2022-11-14T05:28:32.962Z,27.43
2022-11-14T05:31:05.264Z,22.13
2022-11-14T05:33:33.159Z,24.03
2022-11-14T05:36:04.050Z,23.27
2022-11-14T05:38:31.984Z,22.77
2022-11-14T05:41:00.422Z,23.73
2022-11-14T05:43:31.806Z,24.33
2022-11-14T05:46:00.669Z,25.13
2022-11-14T05:48:29.097Z,25.43
2022-11-14T05:50:57.659Z,24.63
2022-11-14T05:53:26.424Z,23.03
2022-11-14T05:55:55.149Z,27.17
2022-11-14T05:58:23.164Z,20.50
2022-11-14T06:00:54.389Z,26.03
2022-11-14T06:03:22.337Z,25.17
2022-11-14T06:05:49.979Z,25.60
2022-11-14T06:08:17.769Z,21.83
2022-11-14T06:10:45.420Z,28.03
2022-11-14T06:13:13.051Z,25.57
2022-11-14T06:15:40.711Z,32.50
2022-11-14T06:18:09.722Z,28.00
2022-11-14T06:20:37.613Z,28.17
2022-11-14T06:23:05.267Z,30.23
2022-11-14T06:25:32.892Z,31.30
2022-11-14T06:28:00.532Z,30.53
2022-11-14T06:30:28.121Z,32.70
2022-11-14T06:32:59.008Z,35.70
2022-11-14T06:35:28.470Z,33.37
2022-11-14T06:37:56.106Z,33.70
2022-11-14T06:40:23.709Z,37.63
2022-11-14T06:42:51.332Z,37.17
2022-11-14T06:45:18.944Z,36.47
2022-11-14T06:47:46.552Z,40.27
2022-11-14T06:50:14.771Z,36.33
2022-11-14T06:52:43.721Z,36.70
2022-11-14T06:55:11.324Z,36.07
2022-11-14T06:57:38.987Z,29.83
2022-11-14T07:00:07.883Z,34.77
2022-11-14T07:02:35.678Z,32.67
2022-11-14T07:05:03.383Z,29.70
2022-11-14T07:07:31.735Z,32.30
2022-11-14T07:10:00.765Z,28.80
2022-11-14T07:12:29.530Z,32.63
2022-11-14T07:14:57.148Z,32.03
2022-11-14T07:17:29.819Z,30.70
2022-11-14T07:19:58.759Z,36.43
2022-11-14T07:22:26.345Z,34.23
2022-11-14T07:24:53.941Z,35.30
2022-11-14T07:27:22.924Z,35.43
2022-11-14T07:29:50.530Z,36.77
2022-11-14T07:32:18.258Z,42.20
2022-11-14T07:34:45.815Z,47.10
2022-11-14T07:37:13.558Z,44.83
2022-11-14T07:39:41.346Z,49.17
2022-11-14T07:42:09.029Z,37.67
2022-11-14T07:44:38.028Z,38.33
2022-11-14T07:47:05.709Z,36.50
2022-11-14T07:49:34.410Z,29.33
2022-11-14T07:52:02.089Z,30.47
2022-11-14T07:54:29.679Z,30.47
2022-11-14T07:56:57.628Z,29.67
2022-11-14T07:59:25.303Z,29.13
2022-11-14T08:01:54.299Z,28.23
2022-11-14T08:04:21.892Z,30.50
2022-11-14T08:06:49.555Z,29.63
2022-11-14T08:09:17.440Z,30.07
2022-11-14T08:11:51.753Z,25.57
2022-11-14T08:14:19.387Z,28.47
2022-11-14T08:16:46.995Z,27.10
2022-11-14T08:19:16.825Z,26.40
2022-11-14T08:21:44.970Z,27.73
2022-11-14T08:24:12.646Z,28.10
2022-11-14T08:26:40.560Z,29.50
2022-11-14T08:29:08.198Z,28.13
2022-11-14T08:31:35.907Z,29.27
2022-11-14T08:34:03.567Z,32.77
2022-11-14T08:36:32.500Z,35.30
2022-11-14T08:39:01.994Z,34.57
2022-11-14T08:41:30.213Z,34.23
2022-11-14T08:43:57.897Z,34.47
2022-11-14T08:46:25.591Z,35.53
2022-11-14T08:48:53.243Z,28.07
2022-11-14T08:51:20.974Z,26.73
2022-11-14T08:53:51.427Z,29.70
2022-11-14T08:56:19.318Z,30.63
2022-11-14T08:58:46.993Z,27.13
2022-11-14T09:01:14.616Z,27.10
2022-11-14T09:03:42.358Z,27.20
2022-11-14T09:06:10.039Z,30.07
2022-11-14T09:08:37.694Z,27.70
2022-11-14T09:11:09.953Z,24.33
2022-11-14T09:13:37.885Z,25.20
2022-11-14T09:16:06.131Z,25.87
2022-11-14T09:18:33.972Z,27.43
2022-11-14T09:21:03.073Z,25.80
2022-11-14T09:23:31.302Z,28.63
2022-11-14T09:25:59.240Z,28.03
2022-11-14T09:28:28.356Z,25.57
2022-11-14T09:31:01.372Z,26.03
2022-11-14T09:33:29.392Z,24.03
2022-11-14T09:35:58.750Z,23.60
2022-11-14T09:38:26.513Z,25.40
2022-11-14T09:41:05.485Z,24.57
2022-11-14T09:43:48.029Z,23.70
2022-11-14T09:46:21.707Z,25.00
2022-11-14T09:48:50.157Z,25.00
2022-11-14T09:51:21.969Z,22.83
2022-11-14T09:53:55.302Z,24.77
2022-11-14T09:56:25.986Z,24.30
2022-11-14T09:58:56.630Z,21.57
2022-11-14T10:01:35.786Z,20.40
2022-11-14T10:04:14.363Z,24.43
2022-11-14T10:06:55.044Z,24.67
2022-11-14T10:09:37.189Z,25.77
2022-11-14T10:12:12.848Z,23.07
2022-11-14T10:15:03.361Z,22.20
2022-11-14T10:17:45.635Z,20.33
2022-11-14T10:20:21.170Z,21.90
2022-11-14T10:23:03.056Z,20.83
2022-11-14T10:25:38.334Z,19.60
2022-11-14T10:28:32.181Z,19.40
2022-11-14T10:31:09.055Z,22.87
2022-11-14T10:33:48.103Z,23.83
2022-11-14T10:36:29.486Z,19.77
2022-11-14T10:39:05.124Z,18.50
2022-11-14T10:41:55.918Z,16.77
2022-11-14T10:44:27.415Z,16.33
2022-11-14T10:47:02.291Z,18.00
2022-11-14T10:49:33.507Z,18.00
2022-11-14T10:52:05.945Z,16.60
2022-11-14T10:54:40.566Z,17.33
2022-11-14T10:57:16.939Z,20.87
2022-11-14T10:59:44.584Z,15.40
2022-11-14T11:02:14.001Z,16.80
2022-11-14T11:04:43.070Z,17.80
2022-11-14T11:07:40.688Z,16.77
2022-11-14T11:10:37.560Z,17.90
2022-11-14T11:13:05.244Z,15.73
2022-11-14T11:15:40.741Z,17.77
2022-11-14T11:18:26.590Z,19.33
2022-11-14T11:21:09.679Z,13.67
2022-11-14T11:23:48.441Z,16.70
2022-11-14T11:26:22.944Z,16.50
2022-11-14T11:29:04.777Z,19.10
2022-11-14T11:31:51.161Z,13.93
2022-11-14T11:34:25.302Z,14.37
2022-11-14T11:36:58.277Z,16.20
2022-11-14T11:39:31.050Z,17.83
2022-11-14T11:42:10.451Z,17.97
2022-11-14T11:44:44.967Z,15.50
2022-11-14T11:47:16.487Z,18.53
2022-11-14T11:49:54.276Z,18.07
2022-11-14T11:52:33.146Z,18.97
2022-11-14T11:55:06.377Z,21.30
2022-11-14T11:57:37.856Z,21.90
2022-11-14T12:00:15.941Z,21.80
2022-11-14T12:02:50.128Z,21.20
2022-11-14T12:05:27.355Z,18.80
2022-11-14T12:08:04.190Z,18.90
2022-11-14T12:10:34.883Z,20.03
2022-11-14T12:13:44.312Z,24.93
2022-11-14T12:16:26.147Z,20.10
2022-11-14T12:19:07.589Z,16.43
2022-11-14T12:21:58.937Z,16.97
2022-11-14T12:24:52.219Z,16.40
2022-11-14T12:28:04.421Z,17.87
2022-11-14T12:30:35.064Z,20.90
2022-11-14T12:33:08.649Z,15.53
2022-11-14T12:35:39.385Z,17.67
2022-11-14T12:38:19.507Z,18.07
2022-11-14T12:40:53.553Z,20.70
2022-11-14T12:43:36.815Z,19.53
2022-11-14T12:46:09.184Z,21.53
2022-11-14T12:48:39.349Z,18.47
2022-11-14T12:51:42.434Z,19.77
2022-11-14T12:54:45.016Z,18.73
2022-11-14T12:57:37.817Z,22.50
2022-11-14T13:00:09.938Z,16.70
2022-11-14T13:03:13.542Z,19.93
2022-11-14T13:05:55.150Z,17.10
2022-11-14T13:08:58.639Z,20.97
2022-11-14T13:12:03.523Z,14.90
2022-11-14T13:14:50.431Z,20.07
2022-11-14T13:17:48.027Z,17.33
2022-11-14T13:20:46.032Z,16.47
2022-11-14T13:23:47.119Z,16.27
2022-11-14T13:26:40.949Z,20.27
2022-11-14T13:30:00.070Z,17.67
2022-11-14T13:33:04.944Z,14.80
2022-11-14T13:36:02.233Z,16.77
2022-11-14T13:39:18.710Z,13.37
2022-11-14T13:42:31.960Z,16.07
2022-11-14T13:45:28.088Z,15.20
2022-11-14T13:48:25.785Z,14.80
2022-11-14T13:51:00.682Z,16.20
2022-11-14T13:53:34.670Z,14.00
2022-11-14T13:56:14.739Z,14.10
2022-11-14T13:58:56.334Z,13.00
2022-11-14T14:01:40.981Z,12.80
2022-11-14T14:04:21.485Z,12.00
2022-11-14T14:07:04.154Z,13.83
2022-11-14T14:09:39.852Z,12.63
2022-11-14T14:12:35.892Z,12.63
2022-11-14T14:15:20.042Z,13.80
2022-11-14T14:17:59.586Z,14.37
2022-11-14T14:20:36.918Z,12.37
2022-11-14T14:23:18.014Z,11.67
2022-11-14T14:25:54.030Z,15.10
2022-11-14T14:28:31.628Z,14.30
2022-11-14T14:31:05.287Z,13.50
2022-11-14T14:33:42.674Z,14.43
2022-11-14T14:36:22.710Z,14.37
2022-11-14T14:38:50.942Z,11.97
2022-11-14T14:41:21.601Z,14.70
2022-11-14T14:43:56.256Z,14.17
2022-11-14T14:46:32.083Z,12.70
2022-11-14T14:49:04.180Z,12.43
2022-11-14T14:51:34.269Z,20.90
2022-11-14T14:54:02.368Z,11.63
2022-11-14T14:56:30.504Z,12.47
2022-11-14T14:58:58.372Z,14.10
2022-11-14T15:01:33.142Z,12.63
2022-11-14T15:04:06.358Z,12.90
2022-11-14T15:06:36.216Z,14.03
2022-11-14T15:09:10.589Z,12.87
2022-11-14T15:11:42.615Z,14.27
2022-11-14T15:14:14.973Z,15.33
2022-11-14T15:16:43.934Z,17.77
2022-11-14T15:19:14.910Z,14.20
2022-11-14T15:21:46.098Z,13.23
2022-11-14T15:24:16.585Z,18.97
2022-11-14T15:26:46.031Z,14.97
2022-11-14T15:29:19.423Z,12.97
2022-11-14T15:31:49.841Z,14.50
2022-11-14T15:34:29.910Z,16.80
2022-11-14T15:37:21.673Z,17.87
2022-11-14T15:39:49.596Z,17.53
2022-11-14T15:42:20.970Z,16.80
2022-11-14T15:44:49.682Z,19.00
2022-11-14T15:47:23.712Z,17.27
2022-11-14T15:50:00.344Z,15.30
2022-11-14T15:52:33.221Z,21.27
2022-11-14T15:55:01.200Z,16.30
2022-11-14T15:57:30.549Z,16.20
2022-11-14T15:59:58.263Z,16.30
2022-11-14T16:02:29.713Z,16.07
2022-11-14T16:04:59.940Z,19.60
2022-11-14T16:07:29.338Z,16.70
2022-11-14T16:09:57.070Z,18.03
2022-11-14T16:12:26.578Z,22.67
2022-11-14T16:14:54.219Z,19.30
2022-11-14T16:17:21.806Z,20.30
2022-11-14T16:19:49.428Z,19.53
2022-11-14T16:22:19.180Z,17.17
2022-11-14T16:24:46.848Z,19.10
2022-11-14T16:27:15.362Z,18.43
2022-11-14T16:29:43.119Z,17.27
2022-11-14T16:32:11.633Z,18.03
2022-11-14T16:34:39.270Z,18.00
2022-11-14T16:37:07.219Z,16.93
2022-11-14T16:39:38.925Z,18.37
2022-11-14T16:42:07.289Z,15.13
2022-11-14T16:44:41.127Z,16.93
2022-11-14T16:47:14.250Z,18.57
2022-11-14T16:49:41.900Z,19.43
2022-11-14T16:52:12.953Z,15.47
2022-11-14T16:54:41.970Z,25.47
2022-11-14T16:57:09.610Z,17.40
2022-11-14T16:59:37.189Z,18.20
2022-11-14T17:02:05.545Z,13.93
2022-11-14T17:04:33.532Z,17.40
2022-11-14T17:07:01.168Z,13.73
2022-11-14T17:09:28.910Z,16.33
2022-11-14T17:11:57.847Z,17.17
2022-11-14T17:14:25.456Z,14.93
2022-11-14T17:16:53.103Z,17.17
2022-11-14T17:19:20.709Z,16.87
2022-11-14T17:21:48.310Z,13.60
2022-11-14T17:24:15.963Z,15.67
2022-11-14T17:26:43.816Z,18.87
2022-11-14T17:29:12.952Z,18.07
2022-11-14T17:31:45.789Z,17.07
2022-11-14T17:34:14.573Z,16.27
2022-11-14T17:36:42.820Z,14.50
2022-11-14T17:39:10.487Z,17.37
2022-11-14T17:41:38.633Z,12.10
2022-11-14T17:44:06.236Z,17.90
2022-11-14T17:46:35.247Z,19.70
2022-11-14T17:49:03.084Z,14.33
2022-11-14T17:51:30.845Z,15.97
2022-11-14T17:53:58.885Z,17.60
2022-11-14T17:56:27.505Z,17.40
2022-11-14T17:58:55.380Z,14.20
2022-11-14T18:01:24.677Z,16.00
2022-11-14T18:03:53.833Z,14.90
2022-11-14T18:06:24.236Z,16.27
2022-11-14T18:08:51.843Z,16.87
2022-11-14T18:11:20.474Z,14.67
2022-11-14T18:13:57.100Z,18.43
2022-11-14T18:16:31.409Z,17.17
2022-11-14T18:19:04.484Z,20.00
2022-11-14T18:21:32.166Z,17.87
2022-11-14T18:24:01.199Z,15.83
2022-11-14T18:26:30.514Z,14.73
2022-11-14T18:28:59.238Z,18.13
2022-11-14T18:31:27.294Z,15.97
2022-11-14T18:33:55.911Z,14.50
2022-11-14T18:36:25.597Z,15.23
2022-11-14T18:38:53.737Z,15.63
2022-11-14T18:41:22.248Z,17.87
2022-11-14T18:43:50.509Z,14.90
2022-11-14T18:46:20.262Z,20.23
2022-11-14T18:48:54.345Z,16.27
2022-11-14T18:51:23.719Z,15.67
2022-11-14T18:53:55.555Z,19.70
2022-11-14T18:56:25.642Z,13.73
2022-11-14T18:58:57.364Z,16.20
2022-11-14T19:01:26.987Z,16.03
2022-11-14T19:03:57.700Z,16.30
2022-11-14T19:06:25.893Z,15.60
2022-11-14T19:08:58.496Z,14.70
2022-11-14T19:11:43.808Z,15.13
2022-11-14T19:14:12.148Z,17.17
2022-11-14T19:16:39.990Z,17.77
2022-11-14T19:19:10.484Z,14.93
2022-11-14T19:21:39.127Z,13.90
2022-11-14T19:24:09.694Z,18.27
2022-11-14T19:26:37.557Z,14.00
2022-11-14T19:29:07.118Z,13.50
2022-11-14T19:31:35.006Z,13.57
2022-11-14T19:34:03.031Z,16.83
2022-11-14T19:36:58.191Z,14.43
2022-11-14T19:39:20.285Z,16.23
2022-11-14T19:41:47.982Z,14.23
2022-11-14T19:44:18.063Z,13.20
2022-11-14T19:46:48.809Z,19.10
2022-11-14T19:49:16.527Z,15.00
2022-11-14T19:51:44.417Z,16.40
2022-11-14T19:54:12.497Z,15.87
2022-11-14T19:56:41.660Z,15.70
2022-11-14T19:59:14.443Z,14.13
2022-11-14T20:01:47.044Z,17.47
2022-11-14T20:04:15.197Z,14.77
2022-11-14T20:06:43.128Z,16.17
2022-11-14T20:09:12.260Z,13.50
2022-11-14T20:11:41.397Z,17.33
2022-11-14T20:14:11.603Z,17.07
2022-11-14T20:16:39.573Z,15.65
2022-11-14T20:19:07.347Z,15.53
2022-11-14T20:21:35.783Z,14.87
2022-11-14T20:24:03.597Z,13.77
2022-11-14T20:26:31.426Z,17.83
2022-11-14T20:29:00.543Z,15.30
2022-11-14T20:31:30.322Z,14.30
2022-11-14T20:33:58.174Z,16.73
2022-11-14T20:36:38.949Z,23.40
2022-11-14T20:39:15.873Z,18.23
2022-11-14T20:41:44.025Z,15.60
2022-11-14T20:44:13.255Z,25.47
2022-11-14T20:46:41.479Z,18.20
2022-11-14T20:49:09.241Z,15.90
2022-11-14T20:51:36.979Z,14.30
2022-11-14T20:54:04.954Z,14.83
2022-11-14T20:56:32.826Z,17.73
2022-11-14T20:59:00.535Z,18.17
2022-11-14T21:01:29.723Z,14.17
2022-11-14T21:03:57.447Z,15.00
2022-11-14T21:06:25.085Z,14.87
2022-11-14T21:08:52.749Z,17.73
2022-11-14T21:11:22.309Z,20.17
2022-11-14T21:13:59.187Z,21.40
2022-11-14T21:16:32.374Z,16.83
2022-11-14T21:19:01.013Z,19.13
2022-11-14T21:21:30.369Z,17.70
2022-11-14T21:23:58.865Z,20.03
2022-11-14T21:26:28.438Z,17.30
2022-11-14T21:28:58.401Z,18.93
2022-11-14T21:31:27.970Z,19.13
2022-11-14T21:33:58.220Z,19.60
2022-11-14T21:39:16.380Z,19.47
2022-11-14T21:41:45.451Z,16.33
2022-11-14T21:44:16.342Z,18.27
2022-11-14T21:46:46.141Z,19.97
2022-11-14T21:49:15.356Z,15.90
2022-11-14T21:51:42.953Z,15.37
2022-11-14T21:54:10.797Z,15.40
2022-11-14T21:56:38.691Z,14.47
2022-11-14T21:59:14.065Z,16.47
2022-11-14T22:02:00.991Z,16.63
2022-11-14T22:04:30.329Z,14.70
2022-11-14T22:06:58.437Z,18.73
2022-11-14T22:09:27.513Z,13.50
2022-11-14T22:11:55.259Z,15.23
2022-11-14T22:14:22.954Z,13.30
2022-11-14T22:16:50.583Z,15.60
2022-11-14T22:19:18.778Z,15.03
2022-11-14T22:21:47.823Z,17.93
2022-11-14T22:24:15.412Z,14.93
2022-11-14T22:26:43.027Z,12.77
2022-11-14T22:29:10.654Z,12.73
2022-11-14T22:31:38.775Z,11.93
2022-11-14T22:34:06.469Z,14.40
2022-11-14T22:36:34.317Z,13.60
2022-11-14T22:39:03.431Z,12.50
2022-11-14T22:41:33.816Z,11.27
2022-11-14T22:44:02.221Z,13.77
2022-11-14T22:46:30.271Z,13.60
2022-11-14T22:48:58.261Z,13.17
2022-11-14T22:51:27.956Z,14.63
2022-11-14T22:53:57.045Z,13.73
2022-11-14T22:56:28.189Z,15.17
2022-11-14T22:58:56.471Z,14.00
2022-11-14T23:01:26.057Z,12.37
2022-11-14T23:03:55.887Z,12.53
2022-11-14T23:06:24.231Z,14.07
2022-11-14T23:08:52.678Z,13.83
2022-11-14T23:11:22.621Z,11.47
2022-11-14T23:13:53.392Z,13.30
2022-11-14T23:16:23.055Z,12.07
2022-11-14T23:18:52.040Z,18.07
2022-11-14T23:21:22.400Z,11.47
2022-11-14T23:23:53.798Z,12.03
2022-11-14T23:26:21.980Z,14.17
2022-11-14T23:28:51.299Z,15.30
2022-11-14T23:31:19.973Z,10.50
2022-11-14T23:33:48.108Z,10.43
2022-11-14T23:36:16.096Z,11.17
2022-11-14T23:38:43.934Z,16.03
2022-11-14T23:41:17.512Z,11.70
2022-11-14T23:43:45.732Z,8.90
2022-11-14T23:46:15.156Z,9.93
2022-11-14T23:48:42.900Z,9.43
2022-11-14T23:51:11.468Z,13.17
2022-11-14T23:53:39.058Z,10.97
2022-11-14T23:56:06.875Z,11.47
2022-11-14T23:58:34.521Z,11.00
